Airfield :
LOGIN :

Register | Disclaimer

   EN    FR    IT 

 










Legend :    VFR   Marginal VFR   IFR   Intensive IFR   Very Intensive IFR
Visi :
Ceiling :
>= 8 km
>= 3000ft
5 to 8 km
1000 to 3000 ft
1500m to 5 km
500 to 1000 ft
800 to 1500m
200 to 500 ft
< 800m
< 200 ft
Symbols :   Thunderstorms  Fog  Heavy snow  Heavy precipitations  Wind > 20 kt
SIGMETs :     Misc.  Thunderstorms  Icing  Turbulence  Mountain Waves  Volcanic Ashes







- Airport Elevation : 285 ft
- IATA code : OZP


LEMO - Sevilla Moron

CURRENT METAR :
  • 190321Z 19006KT 9999 FEW012 BKN018 12/11 Q1001 NOSIG

EXPIRED METARs :
  • 190300Z 19007KT 9999 FEW012 BKN014 12/11 Q1001 NOSIG
  • 190236Z 18008KT 9999 BKN013 13/11 Q1001 NOSIG
  • 190200Z 21008KT 180V240 9999 FEW007 BKN009 12/11 Q1000 NOSIG
  • 190119Z 22008KT 9999 FEW004 SCT009 BKN013 12/12 Q1000 REDZ NOSIG
  • 190100Z 20009KT 170V240 6000 DZ FEW009 BKN013 13/12 Q1000 NOSIG

TAF TAF LEMO
Valid from the 19 at 03:00 until the 19 at 12:00 UTC


190200Z 1903/1912 21007KT 9999 SCT025
TEMPO 1903/1909 BKN008
No reported NOTAMs for that airfield.
1 SIGMET reported for the Madrid FIR (LECM) :
 
Severe turbulence
LECM SIGMET 10 VALID 190100/190500 LEVA
LECM MADRID FIR/UIR SEV TURB FCST N OF LINE N4435 W00734 - N4241 W00003 FL210/320 MOV S NC=



MET'MAP, your aeronautical weather chart ! - Copyright ORBIFLY December 2007 - Disclaimer

ORBIFLY MET'MAP TEAM :

Programming & Development : Alexandra Zaïnal
Concept & Development : Baudouin d'Aumeries
Co-Development & Prog : Marc-Olivier Méhu
Technical & hardware support : Manuel Goepfert

Contact : metmap@orbifly.com




SOURCES & CREDITS :

   NOAA